TimeEST,TemperatureF,Dew PointF,Humidity,Sea Level PressureIn,VisibilityMPH,Wind Direction,Wind SpeedMPH,Gust SpeedMPH,PrecipitationIn,Events,Conditions,WindDirDegrees,DateUTC
12:15 AM,25.3,20.3,81,30.36,10.0,Calm,Calm,-,N/A,,Clear,0,2012-12-31 05:15:00
12:35 AM,25.3,20.5,82,30.35,10.0,Calm,Calm,-,N/A,,Clear,0,2012-12-31 05:35:00
12:55 AM,24.8,20.3,83,30.36,10.0,Calm,Calm,-,N/A,,Clear,0,2012-12-31 05:55:00
1:15 AM,24.3,19.6,82,30.34,10.0,Calm,Calm,-,N/A,,Clear,0,2012-12-31 06:15:00
1:35 AM,23.7,19.8,85,30.33,10.0,Calm,Calm,-,N/A,,Clear,0,2012-12-31 06:35:00
1:55 AM,24.4,20.1,84,30.35,10.0,Calm,Calm,-,N/A,,Clear,0,2012-12-31 06:55:00
2:15 AM,24.3,20.3,85,30.34,10.0,Calm,Calm,-,N/A,,Clear,0,2012-12-31 07:15:00
2:35 AM,25.0,20.1,82,30.35,10.0,Calm,Calm,-,N/A,,Clear,0,2012-12-31 07:35:00
3:15 AM,24.1,20.1,85,30.35,10.0,Calm,Calm,-,N/A,,Clear,0,2012-12-31 08:15:00
3:35 AM,23.4,20.5,89,30.35,10.0,Calm,Calm,-,N/A,,Clear,0,2012-12-31 08:35:00
3:55 AM,22.5,19.9,90,30.34,10.0,Calm,Calm,-,N/A,,Clear,0,2012-12-31 08:55:00
4:15 AM,21.7,19.8,92,30.34,10.0,Calm,Calm,-,N/A,,Clear,0,2012-12-31 09:15:00
4:35 AM,23.9,21.2,89,30.33,10.0,Calm,Calm,-,N/A,,Clear,0,2012-12-31 09:35:00
4:55 AM,23.5,21.6,92,30.33,10.0,Calm,Calm,-,N/A,,Clear,0,2012-12-31 09:55:00
5:15 AM,25.7,22.3,87,30.33,10.0,Calm,Calm,-,N/A,,Clear,0,2012-12-31 10:15:00
5:35 AM,23.2,20.7,90,30.33,10.0,Calm,Calm,-,N/A,,Clear,0,2012-12-31 10:35:00
5:55 AM,23.2,21.0,91,30.33,10.0,Calm,Calm,-,N/A,,Clear,0,2012-12-31 10:55:00
6:15 AM,23.7,21.2,90,30.33,10.0,Calm,Calm,-,N/A,,Clear,0,2012-12-31 11:15:00
6:35 AM,25.9,22.3,86,30.31,10.0,Calm,Calm,-,N/A,,Clear,0,2012-12-31 11:35:00
6:55 AM,27.9,21.7,78,30.32,10.0,SW,3.5,-,N/A,,Clear,230,2012-12-31 11:55:00
7:15 AM,27.9,21.6,77,30.32,10.0,SW,3.5,-,N/A,,Clear,230,2012-12-31 12:15:00
7:35 AM,28.6,21.7,76,30.33,10.0,SW,4.6,-,N/A,,Clear,220,2012-12-31 12:35:00
7:55 AM,29.3,21.7,73,30.32,10.0,Calm,Calm,-,N/A,,Clear,0,2012-12-31 12:55:00
8:15 AM,30.0,21.7,71,30.33,10.0,Calm,Calm,-,N/A,,Clear,0,2012-12-31 13:15:00
8:35 AM,30.4,21.9,71,30.33,10.0,SW,4.6,-,N/A,,Clear,220,2012-12-31 13:35:00
8:55 AM,31.5,23.0,71,30.33,10.0,SW,3.5,-,N/A,,Clear,220,2012-12-31 13:55:00
9:15 AM,32.7,23.0,67,30.33,10.0,WSW,4.6,-,N/A,,Clear,240,2012-12-31 14:15:00
9:35 AM,34.2,23.2,64,30.33,10.0,SW,5.8,-,N/A,,Clear,230,2012-12-31 14:35:00
9:55 AM,34.7,22.6,61,30.33,10.0,SW,4.6,-,N/A,,Clear,220,2012-12-31 14:55:00
10:15 AM,36.1,22.3,57,30.33,10.0,SW,6.9,-,N/A,,Clear,230,2012-12-31 15:15:00
10:35 AM,37.2,22.1,54,30.31,10.0,SW,4.6,-,N/A,,Clear,220,2012-12-31 15:35:00
10:55 AM,38.5,23.4,55,30.31,10.0,WSW,6.9,-,N/A,,Clear,240,2012-12-31 15:55:00
11:15 AM,38.3,23.4,55,30.30,10.0,WSW,3.5,-,N/A,,Clear,240,2012-12-31 16:15:00
11:35 AM,39.2,23.7,54,30.29,10.0,WSW,5.8,-,N/A,,Clear,250,2012-12-31 16:35:00
11:55 AM,39.9,23.2,51,30.28,10.0,West,5.8,-,N/A,,Clear,260,2012-12-31 16:55:00
12:15 PM,41.0,23.0,49,30.26,10.0,SW,5.8,-,N/A,,Clear,220,2012-12-31 17:15:00
12:35 PM,42.4,23.5,47,30.23,10.0,WSW,5.8,-,N/A,,Clear,250,2012-12-31 17:35:00
12:55 PM,42.3,23.7,48,30.21,10.0,SW,4.6,-,N/A,,Clear,230,2012-12-31 17:55:00
1:15 PM,42.8,24.1,48,30.21,10.0,SW,4.6,-,N/A,,Clear,230,2012-12-31 18:15:00
1:35 PM,44.6,24.6,45,30.20,10.0,WSW,4.6,-,N/A,,Clear,240,2012-12-31 18:35:00
1:55 PM,45.5,25.0,45,30.20,10.0,WSW,5.8,-,N/A,,Clear,240,2012-12-31 18:55:00
2:15 PM,46.0,23.7,42,30.19,10.0,SW,5.8,-,N/A,,Clear,230,2012-12-31 19:15:00
2:35 PM,46.0,24.6,43,30.18,10.0,WSW,4.6,-,N/A,,Clear,250,2012-12-31 19:35:00
2:55 PM,45.9,25.2,44,30.19,10.0,West,3.5,-,N/A,,Clear,260,2012-12-31 19:55:00
3:15 PM,45.9,25.5,45,30.18,10.0,SW,4.6,-,N/A,,Clear,230,2012-12-31 20:15:00
3:35 PM,46.4,26.1,45,30.19,10.0,WSW,8.1,-,N/A,,Clear,250,2012-12-31 20:35:00
3:55 PM,46.0,26.1,46,30.18,10.0,WSW,3.5,-,N/A,,Clear,240,2012-12-31 20:55:00
4:15 PM,46.0,26.6,47,30.18,10.0,West,4.6,-,N/A,,Mostly Cloudy,260,2012-12-31 21:15:00
4:35 PM,45.5,26.6,48,30.19,10.0,WSW,3.5,-,N/A,,Overcast,250,2012-12-31 21:35:00
4:55 PM,45.1,27.0,49,30.17,10.0,Calm,Calm,-,N/A,,Overcast,0,2012-12-31 21:55:00
5:15 PM,44.8,27.3,50,30.16,10.0,SSW,3.5,-,N/A,,Overcast,200,2012-12-31 22:15:00
5:35 PM,44.6,27.3,51,30.17,10.0,SSW,3.5,-,N/A,,Overcast,210,2012-12-31 22:35:00
5:55 PM,44.2,27.5,52,30.19,10.0,WSW,4.6,-,N/A,,Overcast,240,2012-12-31 22:55:00
6:15 PM,44.2,27.5,52,30.16,10.0,WSW,3.5,-,N/A,,Overcast,240,2012-12-31 23:15:00
6:35 PM,43.9,27.7,53,30.16,10.0,SW,3.5,-,N/A,,Mostly Cloudy,230,2012-12-31 23:35:00
6:55 PM,43.7,27.7,53,30.16,10.0,SW,4.6,-,N/A,,Scattered Clouds,220,2012-12-31 23:55:00
7:15 PM,43.0,28.2,56,30.16,10.0,WSW,3.5,-,N/A,,Clear,240,2013-01-01 00:15:00
7:35 PM,43.5,28.0,54,30.15,10.0,SW,4.6,-,N/A,,Scattered Clouds,220,2013-01-01 00:35:00
7:55 PM,43.0,28.2,56,30.13,10.0,SW,5.8,-,N/A,,Clear,220,2013-01-01 00:55:00
8:15 PM,42.8,28.2,56,30.13,10.0,SW,5.8,-,N/A,,Clear,220,2013-01-01 01:15:00
8:35 PM,42.8,28.2,56,30.13,10.0,WSW,3.5,-,N/A,,Clear,240,2013-01-01 01:35:00
8:55 PM,42.1,28.4,58,30.12,10.0,WSW,4.6,-,N/A,,Clear,250,2013-01-01 01:55:00
9:15 PM,42.1,29.1,60,30.11,10.0,SW,4.6,-,N/A,,Clear,230,2013-01-01 02:15:00
9:35 PM,41.9,28.8,60,30.11,10.0,SW,3.5,-,N/A,,Clear,230,2013-01-01 02:35:00
9:55 PM,42.3,29.1,60,30.11,10.0,SW,3.5,-,N/A,,Clear,230,2013-01-01 02:55:00
10:15 PM,42.1,29.3,61,30.10,10.0,SW,4.6,-,N/A,,Clear,230,2013-01-01 03:15:00
10:35 PM,42.4,29.3,60,30.09,10.0,SW,5.8,-,N/A,,Clear,220,2013-01-01 03:35:00
10:55 PM,43.0,29.1,58,30.10,10.0,WSW,6.9,-,N/A,,Clear,240,2013-01-01 03:55:00
11:15 PM,44.1,28.4,54,30.10,10.0,WSW,8.1,-,N/A,,Clear,240,2013-01-01 04:15:00
11:35 PM,44.6,28.4,53,30.10,10.0,WSW,6.9,-,N/A,,Clear,240,2013-01-01 04:35:00
11:55 PM,44.2,28.6,54,30.08,10.0,SW,6.9,-,N/A,,Clear,220,2013-01-01 04:55:00